createdAt,value
2018-09-08T00:02:08.676Z,17.40
2018-09-08T00:04:34.991Z,17.29
2018-09-08T00:07:01.301Z,17.27
2018-09-08T00:09:27.619Z,17.22
2018-09-08T00:11:53.939Z,17.17
2018-09-08T00:14:20.258Z,17.07
2018-09-08T00:16:46.572Z,17.05
2018-09-08T00:19:12.894Z,16.98
2018-09-08T00:21:39.206Z,16.91
2018-09-08T00:24:05.517Z,16.81
2018-09-08T00:26:31.833Z,16.84
2018-09-08T00:28:58.155Z,16.82
2018-09-08T00:31:24.516Z,16.78
2018-09-08T00:33:50.780Z,16.72
2018-09-08T00:36:17.093Z,16.71
2018-09-08T00:38:43.411Z,16.64
2018-09-08T00:41:09.723Z,16.58
2018-09-08T00:43:36.038Z,16.40
2018-09-08T00:46:02.355Z,16.42
2018-09-08T00:48:28.678Z,16.47
2018-09-08T00:50:55.002Z,16.54
2018-09-08T00:53:21.320Z,16.39
2018-09-08T00:55:47.632Z,16.29
2018-09-08T00:58:13.946Z,16.26
2018-09-08T01:00:40.261Z,16.17
2018-09-08T01:03:06.578Z,16.07
2018-09-08T01:05:32.898Z,16.11
2018-09-08T01:07:59.209Z,16.20
2018-09-08T01:10:25.531Z,16.22
2018-09-08T01:12:51.839Z,16.10
2018-09-08T01:15:18.155Z,15.97
2018-09-08T01:17:44.467Z,15.94
2018-09-08T01:20:10.780Z,15.84
2018-09-08T01:22:37.098Z,15.77
2018-09-08T01:25:03.411Z,15.78
2018-09-08T01:27:29.720Z,15.79
2018-09-08T01:29:56.027Z,15.98
2018-09-08T01:32:22.341Z,16.09
2018-09-08T01:34:48.663Z,16.05
2018-09-08T01:37:14.974Z,15.80
2018-09-08T01:39:41.289Z,15.59
2018-09-08T01:42:07.612Z,15.76
2018-09-08T01:44:33.924Z,15.96
2018-09-08T01:47:00.235Z,16.12
2018-09-08T01:49:26.547Z,16.00
2018-09-08T01:51:52.873Z,15.98
2018-09-08T01:54:19.185Z,16.05
2018-09-08T01:56:45.501Z,15.96
2018-09-08T01:59:11.811Z,15.80
2018-09-08T02:01:38.123Z,15.88
2018-09-08T02:04:04.436Z,16.00
2018-09-08T02:06:30.753Z,15.96
2018-09-08T02:08:57.075Z,15.92
2018-09-08T02:11:23.385Z,15.84
2018-09-08T02:13:49.697Z,15.95
2018-09-08T02:16:16.058Z,15.88
2018-09-08T02:18:42.424Z,15.84
2018-09-08T02:21:08.732Z,15.86
2018-09-08T02:23:35.040Z,15.89
2018-09-08T02:26:01.362Z,16.00
2018-09-08T02:28:27.675Z,16.02
2018-09-08T02:30:53.999Z,15.94
2018-09-08T02:33:20.308Z,15.86
2018-09-08T02:35:46.645Z,15.93
2018-09-08T02:38:12.961Z,15.79
2018-09-08T02:40:39.284Z,15.54
2018-09-08T02:43:05.593Z,15.32
2018-09-08T02:45:31.906Z,15.25
2018-09-08T02:47:58.213Z,15.14
2018-09-08T02:50:24.564Z,15.15
2018-09-08T02:52:50.889Z,15.01
2018-09-08T02:55:17.246Z,14.85
2018-09-08T02:57:43.597Z,14.93
2018-09-08T03:00:09.913Z,15.00
2018-09-08T03:02:36.228Z,14.82
2018-09-08T03:05:02.543Z,14.81
2018-09-08T03:07:28.851Z,14.78
2018-09-08T03:09:55.184Z,14.95
2018-09-08T03:12:21.495Z,14.89
2018-09-08T03:14:47.831Z,14.86
2018-09-08T03:17:14.162Z,15.07
2018-09-08T03:19:40.476Z,15.16
2018-09-08T03:22:06.789Z,15.18
2018-09-08T03:24:33.109Z,15.22
2018-09-08T03:26:59.415Z,15.18
2018-09-08T03:29:25.733Z,15.13
2018-09-08T03:31:52.056Z,15.17
2018-09-08T03:34:18.368Z,15.06
2018-09-08T03:36:44.725Z,15.02
2018-09-08T03:39:11.037Z,14.89
2018-09-08T03:41:37.388Z,15.03
2018-09-08T03:44:03.707Z,15.03
2018-09-08T03:46:30.019Z,15.01
2018-09-08T03:48:56.339Z,14.92
2018-09-08T03:51:22.702Z,14.83
2018-09-08T03:53:49.018Z,14.93
2018-09-08T03:56:15.334Z,14.95
2018-09-08T03:58:41.653Z,15.01
2018-09-08T04:01:07.970Z,15.05
2018-09-08T04:03:34.325Z,14.85
2018-09-08T04:06:00.635Z,14.86
2018-09-08T04:08:26.943Z,14.99
2018-09-08T04:10:53.257Z,15.18
2018-09-08T04:13:19.564Z,15.17
2018-09-08T04:15:45.880Z,15.34
2018-09-08T04:18:12.244Z,15.40
2018-09-08T04:20:38.503Z,15.50
2018-09-08T04:23:04.817Z,15.55
2018-09-08T04:25:31.134Z,15.50
2018-09-08T04:27:57.443Z,15.60
2018-09-08T04:30:23.762Z,15.82
2018-09-08T04:32:50.083Z,15.72
2018-09-08T04:35:16.396Z,15.66
2018-09-08T04:37:42.744Z,15.69
2018-09-08T04:40:09.056Z,15.82
2018-09-08T04:42:35.389Z,16.03
2018-09-08T04:45:01.732Z,16.15
2018-09-08T04:47:28.044Z,16.21
2018-09-08T04:49:54.352Z,16.19
2018-09-08T04:52:20.664Z,16.31
2018-09-08T04:54:46.972Z,16.09
2018-09-08T04:57:13.293Z,15.92
2018-09-08T04:59:39.605Z,15.86
2018-09-08T05:02:05.916Z,16.12
2018-09-08T05:04:32.231Z,16.13
2018-09-08T05:06:58.550Z,15.95
2018-09-08T05:09:24.869Z,15.66
2018-09-08T05:11:51.207Z,15.66
2018-09-08T05:14:17.523Z,15.58
2018-09-08T05:16:43.827Z,15.71
2018-09-08T05:19:10.135Z,15.76
2018-09-08T05:21:36.444Z,15.73
2018-09-08T05:24:02.755Z,15.83
2018-09-08T05:26:29.070Z,15.97
2018-09-08T05:28:55.387Z,16.04
2018-09-08T05:31:21.704Z,15.95
2018-09-08T05:33:48.022Z,16.10
2018-09-08T05:36:14.341Z,16.46
2018-09-08T05:38:40.647Z,16.81
2018-09-08T05:41:06.960Z,17.22
2018-09-08T05:43:33.281Z,17.49
2018-09-08T05:45:59.599Z,17.78
2018-09-08T05:48:25.954Z,17.95
2018-09-08T05:50:52.265Z,18.24
2018-09-08T05:53:18.582Z,18.55
2018-09-08T05:55:44.894Z,18.67
2018-09-08T05:58:11.209Z,18.92
2018-09-08T06:00:37.524Z,19.05
2018-09-08T06:03:03.841Z,19.12
2018-09-08T06:05:30.161Z,19.36
2018-09-08T06:07:56.484Z,19.48
2018-09-08T06:10:22.904Z,19.62
2018-09-08T06:12:49.132Z,19.52
2018-09-08T06:15:15.455Z,19.45
2018-09-08T06:17:41.766Z,19.24
2018-09-08T06:20:08.089Z,19.58
2018-09-08T06:22:34.395Z,19.93
2018-09-08T06:25:00.716Z,20.18
2018-09-08T06:27:27.049Z,20.11
2018-09-08T06:29:53.341Z,20.10
2018-09-08T06:32:19.652Z,20.30
2018-09-08T06:34:45.965Z,20.75
2018-09-08T06:37:12.280Z,21.17
2018-09-08T06:39:38.593Z,20.78
2018-09-08T06:42:04.904Z,20.90
2018-09-08T06:44:31.226Z,21.33
2018-09-08T06:46:57.542Z,21.49
2018-09-08T06:49:23.850Z,21.97
2018-09-08T06:51:50.164Z,22.27
2018-09-08T06:54:16.481Z,22.44
2018-09-08T06:56:42.798Z,22.50
2018-09-08T06:59:09.115Z,22.40
2018-09-08T07:01:35.429Z,22.89
2018-09-08T07:04:01.739Z,23.29
2018-09-08T07:06:28.047Z,23.18
2018-09-08T07:08:54.359Z,22.76
2018-09-08T07:11:20.671Z,22.43
2018-09-08T07:13:46.979Z,22.99
2018-09-08T07:16:13.292Z,23.82
2018-09-08T07:18:39.611Z,23.48
2018-09-08T07:21:05.963Z,23.32
2018-09-08T07:23:32.271Z,23.60
2018-09-08T07:25:58.708Z,23.98
2018-09-08T07:28:25.045Z,24.00
2018-09-08T07:30:51.363Z,24.27
2018-09-08T07:33:17.674Z,24.55
2018-09-08T07:35:43.998Z,24.65
2018-09-08T07:38:10.316Z,24.75
2018-09-08T07:40:36.632Z,24.94
2018-09-08T07:43:02.956Z,25.29
2018-09-08T07:45:29.326Z,25.72
2018-09-08T07:47:55.646Z,25.80
2018-09-08T07:50:21.960Z,25.30
2018-09-08T07:52:48.284Z,25.04
2018-09-08T07:55:14.601Z,24.28
2018-09-08T07:57:40.912Z,24.13
2018-09-08T08:00:07.270Z,24.15
2018-09-08T08:02:33.579Z,24.42
2018-09-08T08:04:59.941Z,24.66
2018-09-08T08:07:26.250Z,25.11
2018-09-08T08:09:52.613Z,24.90
2018-09-08T08:12:18.928Z,24.86
2018-09-08T08:14:45.249Z,25.05
2018-09-08T08:17:11.571Z,25.15
2018-09-08T08:19:37.889Z,25.34
2018-09-08T08:22:04.201Z,25.47
2018-09-08T08:24:30.518Z,25.62
2018-09-08T08:26:56.855Z,25.30
2018-09-08T08:29:23.166Z,25.45
2018-09-08T08:31:49.528Z,25.84
2018-09-08T08:34:15.842Z,26.15
2018-09-08T08:36:42.160Z,26.32
2018-09-08T08:39:08.498Z,26.51
2018-09-08T08:41:34.821Z,26.33
2018-09-08T08:44:01.129Z,26.38
2018-09-08T08:46:27.452Z,26.33
2018-09-08T08:48:53.765Z,26.48
2018-09-08T08:51:20.080Z,26.22
2018-09-08T08:53:46.388Z,26.74
2018-09-08T08:56:12.707Z,26.99
2018-09-08T08:58:39.023Z,27.03
2018-09-08T09:01:05.328Z,27.07
2018-09-08T09:03:31.649Z,27.03
2018-09-08T09:05:57.971Z,27.10
2018-09-08T09:08:24.686Z,27.42
2018-09-08T09:10:50.596Z,27.70
2018-09-08T09:13:16.932Z,27.50
2018-09-08T09:15:43.229Z,27.74
2018-09-08T09:18:09.546Z,27.99
2018-09-08T09:20:35.860Z,27.98
2018-09-08T09:23:02.187Z,28.36
2018-09-08T09:25:28.514Z,28.02
2018-09-08T09:27:54.829Z,28.23
2018-09-08T09:30:21.186Z,27.86
2018-09-08T09:32:47.495Z,26.90
2018-09-08T09:35:13.820Z,26.32
2018-09-08T09:37:40.171Z,26.10
2018-09-08T09:40:06.498Z,26.02
2018-09-08T09:42:32.813Z,26.14
2018-09-08T09:44:59.133Z,26.81
2018-09-08T09:47:25.439Z,27.43
2018-09-08T09:49:51.753Z,27.77
2018-09-08T09:52:18.071Z,28.19
2018-09-08T09:54:44.389Z,28.26
2018-09-08T09:57:10.706Z,27.68
2018-09-08T09:59:37.018Z,27.13
2018-09-08T10:02:03.366Z,26.62
2018-09-08T10:04:29.691Z,26.60
2018-09-08T10:06:56.004Z,26.29
2018-09-08T10:09:22.353Z,26.05
2018-09-08T10:11:48.675Z,26.28
2018-09-08T10:14:14.995Z,26.60
2018-09-08T10:16:41.353Z,27.07
2018-09-08T10:19:07.664Z,27.48
2018-09-08T10:21:33.975Z,28.15
2018-09-08T10:24:05.161Z,28.25
2018-09-08T10:26:26.637Z,27.84
2018-09-08T10:28:52.923Z,27.26
2018-09-08T10:31:19.235Z,26.88
2018-09-08T10:33:45.560Z,26.42
2018-09-08T10:36:11.914Z,26.26
2018-09-08T10:38:38.226Z,26.30
2018-09-08T10:41:04.538Z,26.09
2018-09-08T10:43:30.866Z,26.12
2018-09-08T10:45:57.172Z,26.21
2018-09-08T10:48:23.490Z,26.63
2018-09-08T10:50:49.892Z,27.16
2018-09-08T10:53:16.180Z,27.62
2018-09-08T10:55:42.546Z,28.47
2018-09-08T10:58:08.888Z,28.80
2018-09-08T11:00:35.203Z,28.20
2018-09-08T11:03:01.580Z,27.93
2018-09-08T11:05:27.856Z,27.94
2018-09-08T11:07:54.209Z,27.76
2018-09-08T11:10:20.529Z,27.76
2018-09-08T11:12:46.841Z,27.71
2018-09-08T11:15:13.154Z,27.64
2018-09-08T11:17:39.494Z,27.45
2018-09-08T11:20:05.815Z,26.98
2018-09-08T11:22:32.135Z,26.64
2018-09-08T11:24:58.519Z,26.39
2018-09-08T11:27:24.839Z,25.95
2018-09-08T11:29:51.163Z,26.35
2018-09-08T11:32:17.614Z,27.09
2018-09-08T11:34:43.943Z,27.73
2018-09-08T11:37:10.252Z,27.55
2018-09-08T11:39:36.560Z,27.00
2018-09-08T11:42:02.880Z,26.35
2018-09-08T11:44:29.199Z,25.96
2018-09-08T11:46:55.533Z,25.54
2018-09-08T11:49:21.879Z,24.99
2018-09-08T11:51:48.164Z,24.64
2018-09-08T11:54:14.529Z,24.35
2018-09-08T11:56:40.883Z,23.99
2018-09-08T11:59:07.251Z,23.60
2018-09-08T12:01:33.580Z,23.50
2018-09-08T12:03:59.910Z,23.41
2018-09-08T12:06:26.272Z,23.31
2018-09-08T12:08:52.544Z,23.02
2018-09-08T12:11:18.859Z,22.66
2018-09-08T12:13:45.209Z,22.46
2018-09-08T12:16:11.491Z,22.51
2018-09-08T12:18:37.900Z,22.68
2018-09-08T12:21:04.222Z,22.66
2018-09-08T12:23:30.541Z,22.64
2018-09-08T12:25:56.867Z,22.54
2018-09-08T12:28:23.209Z,22.38
2018-09-08T12:30:49.589Z,22.19
2018-09-08T12:33:15.859Z,22.06
2018-09-08T12:35:42.169Z,21.94
2018-09-08T12:38:08.503Z,22.09
2018-09-08T12:40:34.830Z,22.39
2018-09-08T12:43:01.145Z,22.96
2018-09-08T12:45:27.465Z,23.51
2018-09-08T12:47:53.795Z,23.94
2018-09-08T12:50:20.105Z,24.40
2018-09-08T12:52:46.418Z,24.87
2018-09-08T12:55:12.742Z,25.28
2018-09-08T12:57:39.064Z,25.48
2018-09-08T13:00:05.375Z,25.59
2018-09-08T13:02:31.683Z,25.72
2018-09-08T13:04:58.017Z,25.66
2018-09-08T13:07:24.378Z,25.55
2018-09-08T13:09:50.718Z,25.70
2018-09-08T13:12:17.026Z,25.74
2018-09-08T13:14:43.361Z,25.63
2018-09-08T13:17:09.685Z,25.60
2018-09-08T13:19:36.014Z,25.44
2018-09-08T13:22:02.363Z,25.41
2018-09-08T13:24:28.686Z,25.22
2018-09-08T13:26:55.065Z,24.95
2018-09-08T13:29:21.381Z,25.16
2018-09-08T13:31:47.705Z,25.35
2018-09-08T13:34:14.040Z,25.54
2018-09-08T13:36:40.371Z,25.54
2018-09-08T13:39:06.741Z,25.64
2018-09-08T13:41:33.066Z,25.60
2018-09-08T13:43:59.394Z,25.65
2018-09-08T13:46:25.706Z,25.74
2018-09-08T13:48:52.016Z,25.73
2018-09-08T13:51:18.327Z,25.80
2018-09-08T13:53:44.641Z,25.75
2018-09-08T13:56:10.964Z,25.84
2018-09-08T13:58:37.272Z,25.73
2018-09-08T14:01:03.644Z,25.74
2018-09-08T14:03:30.023Z,25.82
2018-09-08T14:05:56.347Z,25.83
2018-09-08T14:08:22.687Z,25.70
2018-09-08T14:10:49.018Z,25.75
2018-09-08T14:13:15.343Z,25.72
2018-09-08T14:15:41.671Z,25.69
2018-09-08T14:18:07.987Z,25.55
2018-09-08T14:20:34.361Z,25.39
2018-09-08T14:23:00.717Z,25.31
2018-09-08T14:25:27.097Z,25.40
2018-09-08T14:27:53.407Z,25.36
2018-09-08T14:30:19.730Z,25.32
2018-09-08T14:32:46.041Z,25.35
2018-09-08T14:35:12.362Z,25.35
2018-09-08T14:37:38.690Z,25.41
2018-09-08T14:40:05.007Z,25.51
2018-09-08T14:42:31.317Z,25.50
2018-09-08T14:44:57.630Z,25.40
2018-09-08T14:47:23.975Z,25.23
2018-09-08T14:49:50.264Z,25.02
2018-09-08T14:52:16.571Z,24.93
2018-09-08T14:54:42.892Z,24.96
2018-09-08T14:57:09.272Z,24.90
2018-09-08T14:59:35.516Z,24.67
2018-09-08T15:02:01.824Z,24.49
2018-09-08T15:04:28.171Z,24.39
2018-09-08T15:06:54.457Z,24.20
2018-09-08T15:09:20.771Z,24.13
2018-09-08T15:11:47.088Z,23.92
2018-09-08T15:14:13.407Z,23.83
2018-09-08T15:16:39.730Z,23.65
2018-09-08T15:19:06.053Z,23.50
2018-09-08T15:21:32.374Z,23.43
2018-09-08T15:23:58.699Z,23.34
2018-09-08T15:26:25.018Z,23.21
2018-09-08T15:28:51.312Z,23.18
2018-09-08T15:31:17.635Z,23.11
2018-09-08T15:33:43.952Z,23.06
2018-09-08T15:36:10.278Z,23.08
2018-09-08T15:38:36.590Z,23.00
2018-09-08T15:41:02.912Z,22.94
2018-09-08T15:43:29.219Z,22.92
2018-09-08T15:45:55.557Z,22.87
2018-09-08T15:48:21.847Z,22.87
2018-09-08T15:50:48.176Z,22.88
2018-09-08T15:53:14.493Z,22.90
2018-09-08T15:55:40.847Z,22.95
2018-09-08T15:58:07.148Z,22.89
2018-09-08T16:00:33.432Z,22.66
2018-09-08T16:02:59.740Z,22.48
2018-09-08T16:05:26.063Z,22.47
2018-09-08T16:07:52.372Z,22.42
2018-09-08T16:10:18.697Z,22.25
2018-09-08T16:12:45.018Z,22.12
2018-09-08T16:15:11.350Z,22.06
2018-09-08T16:17:37.692Z,22.07
2018-09-08T16:20:04.024Z,22.12
2018-09-08T16:22:30.372Z,22.17
2018-09-08T16:24:56.691Z,22.14
2018-09-08T16:27:23.014Z,22.13
2018-09-08T16:29:49.333Z,22.13
2018-09-08T16:32:15.700Z,22.07
2018-09-08T16:34:42.048Z,22.09
2018-09-08T16:37:08.404Z,22.12
2018-09-08T16:39:34.793Z,22.13
2018-09-08T16:42:01.066Z,22.13
2018-09-08T16:44:27.384Z,22.12
2018-09-08T16:46:53.716Z,22.12
2018-09-08T16:49:20.042Z,22.10
2018-09-08T16:51:46.406Z,22.05
2018-09-08T16:54:12.719Z,21.99
2018-09-08T16:56:39.048Z,21.98
2018-09-08T16:59:05.377Z,21.93
2018-09-08T17:01:31.687Z,21.89
2018-09-08T17:03:58.013Z,21.93
2018-09-08T17:06:24.343Z,21.90
2018-09-08T17:08:50.659Z,21.89
2018-09-08T17:11:16.984Z,21.88
2018-09-08T17:13:43.297Z,21.86
2018-09-08T17:16:09.608Z,21.86
2018-09-08T17:18:35.965Z,21.88
2018-09-08T17:21:02.334Z,21.90
2018-09-08T17:23:28.657Z,21.91
2018-09-08T17:25:54.972Z,21.94
2018-09-08T17:28:21.314Z,21.95
2018-09-08T17:30:47.669Z,21.92
2018-09-08T17:33:13.950Z,21.87
2018-09-08T17:35:40.255Z,21.81
2018-09-08T17:38:06.567Z,21.74
2018-09-08T17:40:32.937Z,21.72
2018-09-08T17:42:59.297Z,21.68
2018-09-08T17:45:25.623Z,21.65
2018-09-08T17:47:51.953Z,21.59
2018-09-08T17:50:18.287Z,21.53
2018-09-08T17:52:44.615Z,21.44
2018-09-08T17:55:10.924Z,21.40
2018-09-08T17:57:37.346Z,21.37
2018-09-08T18:00:03.609Z,21.34
2018-09-08T18:02:29.939Z,21.31
2018-09-08T18:04:56.272Z,21.29
2018-09-08T18:07:25.665Z,21.27
2018-09-08T18:09:51.991Z,21.26
2018-09-08T18:12:18.327Z,21.27
2018-09-08T18:14:44.644Z,21.26
2018-09-08T18:17:10.965Z,21.32
2018-09-08T18:19:37.315Z,21.32
2018-09-08T18:22:03.635Z,21.35
2018-09-08T18:24:29.964Z,21.34
2018-09-08T18:26:56.295Z,21.34
2018-09-08T18:29:22.621Z,21.37
2018-09-08T18:31:48.956Z,21.35
2018-09-08T18:34:15.309Z,21.35
2018-09-08T18:36:41.649Z,21.29
2018-09-08T18:39:07.978Z,21.26
2018-09-08T18:41:34.396Z,21.24
2018-09-08T18:44:00.606Z,21.23
2018-09-08T18:46:26.937Z,21.19
2018-09-08T18:48:53.271Z,21.14
2018-09-08T18:51:19.577Z,21.06
2018-09-08T18:53:45.961Z,21.01
2018-09-08T18:56:12.251Z,20.97
2018-09-08T18:58:39.213Z,20.91
2018-09-08T19:01:05.538Z,20.85
2018-09-08T19:03:31.855Z,20.82
2018-09-08T19:05:58.184Z,20.77
2018-09-08T19:08:24.493Z,20.72
2018-09-08T19:10:50.824Z,20.70
2018-09-08T19:13:17.146Z,20.66
2018-09-08T19:15:43.474Z,20.62
2018-09-08T19:18:09.806Z,20.58
2018-09-08T19:20:36.161Z,20.55
2018-09-08T19:23:02.475Z,20.50
2018-09-08T19:25:28.820Z,20.41
2018-09-08T19:27:55.131Z,20.38
2018-09-08T19:30:21.491Z,20.38
2018-09-08T19:32:47.804Z,20.35
2018-09-08T19:35:14.130Z,20.34
2018-09-08T19:37:40.447Z,20.37
2018-09-08T19:40:06.760Z,20.48
2018-09-08T19:42:33.135Z,20.51
2018-09-08T19:44:59.441Z,20.54
2018-09-08T19:47:25.755Z,20.49
2018-09-08T19:49:52.104Z,20.51
2018-09-08T19:52:18.484Z,20.46
2018-09-08T19:54:44.789Z,20.40
2018-09-08T19:57:11.108Z,20.31
2018-09-08T19:59:37.420Z,20.28
2018-09-08T20:02:03.763Z,20.24
2018-09-08T20:04:30.087Z,20.20
2018-09-08T20:06:56.417Z,20.21
2018-09-08T20:09:22.777Z,20.18
2018-09-08T20:11:49.056Z,20.20
2018-09-08T20:14:15.388Z,20.22
2018-09-08T20:16:41.739Z,20.20
2018-09-08T20:19:08.119Z,20.22
2018-09-08T20:21:34.430Z,20.21
2018-09-08T20:24:00.758Z,20.20
2018-09-08T20:26:27.084Z,20.15
2018-09-08T20:28:53.448Z,20.10
2018-09-08T20:31:19.707Z,20.05
2018-09-08T20:33:46.017Z,20.02
2018-09-08T20:36:12.343Z,19.96
2018-09-08T20:38:38.677Z,19.87
2018-09-08T20:41:05.014Z,19.85
2018-09-08T20:43:31.332Z,19.84
2018-09-08T20:45:57.665Z,19.82
2018-09-08T20:48:23.976Z,19.84
2018-09-08T20:50:50.289Z,19.82
2018-09-08T20:53:16.618Z,19.80
2018-09-08T20:55:42.927Z,19.79
2018-09-08T20:58:09.240Z,19.80
2018-09-08T21:00:35.551Z,19.74
2018-09-08T21:03:01.880Z,19.72
2018-09-08T21:05:28.187Z,19.71
2018-09-08T21:07:54.519Z,19.67
2018-09-08T21:10:20.844Z,19.60
2018-09-08T21:12:47.157Z,19.58
2018-09-08T21:15:13.464Z,19.57
2018-09-08T21:17:39.789Z,19.56
2018-09-08T21:20:06.099Z,19.58
2018-09-08T21:22:32.408Z,19.60
2018-09-08T21:24:58.731Z,19.58
2018-09-08T21:27:25.037Z,19.63
2018-09-08T21:29:51.351Z,19.60
2018-09-08T21:32:17.685Z,19.57
2018-09-08T21:34:44.039Z,19.60
2018-09-08T21:37:10.381Z,19.57
2018-09-08T21:39:36.750Z,19.52
2018-09-08T21:42:03.065Z,19.53
2018-09-08T21:44:29.396Z,19.52
2018-09-08T21:46:55.718Z,19.51
2018-09-08T21:49:22.271Z,19.49
2018-09-08T21:51:48.595Z,19.49
2018-09-08T21:54:14.923Z,19.46
2018-09-08T21:56:41.287Z,19.43
2018-09-08T21:59:07.611Z,19.41
2018-09-08T22:01:33.929Z,19.42
2018-09-08T22:04:00.244Z,19.35
2018-09-08T22:06:26.551Z,19.35
2018-09-08T22:08:52.875Z,19.26
2018-09-08T22:11:19.192Z,19.27
2018-09-08T22:13:45.514Z,19.24
2018-09-08T22:16:11.825Z,19.20
2018-09-08T22:18:38.146Z,19.17
2018-09-08T22:21:04.461Z,19.17
2018-09-08T22:23:30.781Z,19.17
2018-09-08T22:25:57.093Z,19.18
2018-09-08T22:28:23.408Z,19.14
2018-09-08T22:30:49.721Z,19.16
2018-09-08T22:33:16.040Z,19.19
2018-09-08T22:35:42.355Z,19.16
2018-09-08T22:38:08.674Z,19.18
2018-09-08T22:40:34.986Z,19.20
2018-09-08T22:43:01.302Z,19.18
2018-09-08T22:45:27.642Z,19.21
2018-09-08T22:47:53.965Z,19.21
2018-09-08T22:50:20.281Z,19.22
2018-09-08T22:52:46.598Z,19.22
2018-09-08T22:55:12.919Z,19.26
2018-09-08T22:57:39.231Z,19.22
2018-09-08T23:00:05.578Z,19.19
2018-09-08T23:02:31.919Z,19.22
2018-09-08T23:04:58.274Z,19.22
2018-09-08T23:07:24.567Z,19.22
2018-09-08T23:09:50.877Z,19.21
2018-09-08T23:12:17.219Z,19.17
2018-09-08T23:14:43.504Z,19.18
2018-09-08T23:17:09.823Z,19.16
2018-09-08T23:19:36.135Z,19.15
2018-09-08T23:22:02.448Z,19.15
2018-09-08T23:24:28.764Z,19.05
2018-09-08T23:26:55.125Z,18.98
2018-09-08T23:29:21.442Z,18.96
2018-09-08T23:31:47.749Z,18.91
2018-09-08T23:34:14.060Z,18.89
2018-09-08T23:36:40.371Z,18.90
2018-09-08T23:39:06.684Z,18.88
2018-09-08T23:41:33.001Z,18.89
2018-09-08T23:43:59.319Z,18.89
2018-09-08T23:46:25.633Z,18.84
2018-09-08T23:48:51.949Z,18.85
2018-09-08T23:51:18.312Z,18.93
2018-09-08T23:53:44.626Z,18.87
2018-09-08T23:56:10.932Z,18.82
2018-09-08T23:58:37.254Z,18.81
